Time;durP1;ratioP1;P1;durP2;ratioP2;P2;SDS_P1;SDS_P2;PMS_P1;PMS_P2;Temp;Humidity;BMP_temperature;BMP_pressure;BME280_temperature;BME280_humidity;BME280_pressure;Samples;Min_cycle;Max_cycle;Signal;HPM_P1;HPM_P2
2023/09/12 00:00:46;;;;;;;6.18;3.22;;;;;;;;;;7306459;19;140583;-78
2023/09/12 00:03:13;;;;;;;4.18;2.97;;;;;;;;;;7306747;19;140611;-79
2023/09/12 00:05:40;;;;;;;3.28;2.80;;;;;;;;;;7305893;19;141288;-78
2023/09/12 00:08:07;;;;;;;4.22;2.90;;;;;;;;;;7305007;19;142035;-78
2023/09/12 00:10:34;;;;;;;3.78;2.85;;;;;;;;;;7305835;19;140513;-78
2023/09/12 00:13:02;;;;;;;4.28;2.60;;;;;;;;;;7305867;19;140518;-78
2023/09/12 00:15:29;;;;;;;3.17;2.53;;;;;;;;;;7304620;19;141218;-78
2023/09/12 00:17:56;;;;;;;3.38;2.90;;;;;;;;;;7305678;19;141785;-78
2023/09/12 00:20:23;;;;;;;5.82;3.08;;;;;;;;;;7304412;19;140671;-79
2023/09/12 00:22:53;;;;;;;3.65;2.75;;;;;;;;;;7305513;19;140741;-77
2023/09/12 00:25:20;;;;;;;3.53;2.78;;;;;;;;;;7305175;19;141078;-77
2023/09/12 00:27:47;;;;;;;4.15;2.80;;;;;;;;;;7302360;19;141095;-77
2023/09/12 00:30:15;;;;;;;3.58;2.88;;;;;;;;;;7305571;19;140464;-77
2023/09/12 00:32:42;;;;;;;3.65;2.50;;;;;;;;;;7304120;19;140692;-77
2023/09/12 00:35:09;;;;;;;3.05;2.50;;;;;;;;;;7302298;19;141223;-78
2023/09/12 00:37:36;;;;;;;2.88;2.20;;;;;;;;;;7305210;19;142783;-77
2023/09/12 00:40:04;;;;;;;2.88;2.58;;;;;;;;;;7304459;19;140365;-76
2023/09/12 00:42:31;;;;;;;4.35;3.08;;;;;;;;;;7302612;19;141831;-76
2023/09/12 00:44:58;;;;;;;3.78;2.65;;;;;;;;;;7304245;19;140874;-77
2023/09/12 00:47:25;;;;;;;4.38;2.72;;;;;;;;;;7304913;19;142462;-77
2023/09/12 00:49:53;;;;;;;3.08;2.60;;;;;;;;;;7304721;19;140662;-79
2023/09/12 00:52:24;;;;;;;3.77;2.60;;;;;;;;;;7304748;19;140666;-78
2023/09/12 00:54:51;;;;;;;3.03;2.30;;;;;;;;;;7304004;19;141930;-78
2023/09/12 00:57:19;;;;;;;3.63;2.42;;;;;;;;;;7302740;19;142621;-77
2023/09/12 00:59:47;;;;;;;4.05;2.80;;;;;;;;;;7304795;19;140473;-77
2023/09/12 01:02:14;;;;;;;4.18;2.50;;;;;;;;;;7304591;19;140551;-78
2023/09/12 01:04:42;;;;;;;3.15;2.40;;;;;;;;;;7304529;19;142051;-78
2023/09/12 01:07:09;;;;;;;2.58;2.30;;;;;;;;;;7304243;19;142582;-78
2023/09/12 01:09:36;;;;;;;3.90;2.30;;;;;;;;;;7304255;19;140780;-78
2023/09/12 01:12:04;;;;;;;4.35;2.70;;;;;;;;;;7303408;19;140620;-77
2023/09/12 01:14:31;;;;;;;2.88;2.30;;;;;;;;;;7305725;19;140927;-78
2023/09/12 01:16:59;;;;;;;3.47;2.47;;;;;;;;;;7301740;19;141261;-78
2023/09/12 01:19:26;;;;;;;4.00;2.35;;;;;;;;;;7303357;19;140530;-78
2023/09/12 01:21:56;;;;;;;3.00;2.40;;;;;;;;;;7303725;19;140484;-77
2023/09/12 01:24:29;;;;;;;4.30;2.60;;;;;;;;;;7303323;19;141576;-78
2023/09/12 01:27:18;;;;;;;7.28;3.00;;;;;;;;;;7297951;19;141845;-76
2023/09/12 01:29:46;;;;;;;5.72;2.90;;;;;;;;;;7301952;19;140866;-77
2023/09/12 01:32:14;;;;;;;3.03;2.28;;;;;;;;;;7301922;19;141668;-78
2023/09/12 01:34:41;;;;;;;3.22;2.45;;;;;;;;;;7303378;19;140864;-78
2023/09/12 01:37:08;;;;;;;3.33;2.35;;;;;;;;;;7301566;19;141996;-78
2023/09/12 01:39:35;;;;;;;3.70;2.70;;;;;;;;;;7302483;19;140747;-78
2023/09/12 01:42:03;;;;;;;3.00;2.10;;;;;;;;;;7301929;19;140614;-78
2023/09/12 01:44:31;;;;;;;3.40;2.50;;;;;;;;;;7302126;19;141484;-77
2023/09/12 01:47:02;;;;;;;3.30;2.22;;;;;;;;;;7303099;19;142544;-77
2023/09/12 01:49:33;;;;;;;4.18;2.33;;;;;;;;;;7300060;19;140774;-79
2023/09/12 01:52:00;;;;;;;;;;;;;;;;;;7302418;19;140429;-77
2023/09/12 01:54:27;;;;;;;3.08;2.25;;;;;;;;;;7302717;19;148099;-78
2023/09/12 01:56:57;;;;;;;3.75;2.42;;;;;;;;;;7301863;19;142009;-79
2023/09/12 01:59:24;;;;;;;2.28;1.83;;;;;;;;;;7302298;19;140330;-77
2023/09/12 02:01:51;;;;;;;2.95;2.10;;;;;;;;;;7303383;19;140555;-78
2023/09/12 02:04:18;;;;;;;3.03;2.25;;;;;;;;;;7302429;19;140889;-78
2023/09/12 02:06:45;;;;;;;3.83;2.40;;;;;;;;;;7301936;19;142566;-78
2023/09/12 02:09:14;;;;;;;4.40;2.70;;;;;;;;;;7301664;19;140468;-78
2023/09/12 02:11:42;;;;;;;2.53;2.05;;;;;;;;;;7302200;19;140823;-78
2023/09/12 02:14:10;;;;;;;2.50;1.80;;;;;;;;;;7301242;19;141051;-78
2023/09/12 02:16:40;;;;;;;2.42;2.03;;;;;;;;;;7301113;19;142083;-78
2023/09/12 02:19:10;;;;;;;2.72;2.17;;;;;;;;;;7301001;19;140992;-78
2023/09/12 02:21:40;;;;;;;2.67;2.22;;;;;;;;;;7302056;19;140841;-77
2023/09/12 02:24:07;;;;;;;2.35;2.10;;;;;;;;;;7301469;19;140995;-78
2023/09/12 02:26:36;;;;;;;2.78;2.13;;;;;;;;;;7301611;19;142413;-78
2023/09/12 02:29:05;;;;;;;3.15;2.05;;;;;;;;;;7301768;19;140430;-77
2023/09/12 02:31:32;;;;;;;2.73;2.00;;;;;;;;;;7301741;19;140577;-77
2023/09/12 02:34:00;;;;;;;3.10;2.03;;;;;;;;;;7301308;19;141044;-76
2023/09/12 02:36:28;;;;;;;2.08;1.88;;;;;;;;;;7299953;19;142158;-78
2023/09/12 02:38:55;;;;;;;3.80;2.45;;;;;;;;;;7301186;19;140430;-78
2023/09/12 02:41:22;;;;;;;3.17;2.00;;;;;;;;;;7301214;19;140667;-77
2023/09/12 02:43:49;;;;;;;2.03;1.80;;;;;;;;;;7300506;19;141416;-77
2023/09/12 02:46:16;;;;;;;2.95;2.00;;;;;;;;;;7300680;19;140783;-76
2023/09/12 02:48:43;;;;;;;2.55;1.90;;;;;;;;;;7300025;19;141846;-78
2023/09/12 02:51:14;;;;;;;2.65;1.92;;;;;;;;;;7298024;19;141087;-79
2023/09/12 02:53:41;;;;;;;2.25;1.77;;;;;;;;;;7300282;19;141871;-78
2023/09/12 02:56:08;;;;;;;3.08;1.90;;;;;;;;;;7300670;19;141927;-78
2023/09/12 02:58:35;;;;;;;3.42;2.00;;;;;;;;;;7300622;19;140392;-77
2023/09/12 03:01:03;;;;;;;2.42;1.80;;;;;;;;;;7301106;19;140632;-78
2023/09/12 03:03:30;;;;;;;1.98;1.70;;;;;;;;;;7300143;19;140527;-78
2023/09/12 03:06:02;;;;;;;2.97;1.90;;;;;;;;;;7300693;19;142444;-77
2023/09/12 03:08:29;;;;;;;2.20;1.83;;;;;;;;;;7299443;19;140765;-79
2023/09/12 03:10:57;;;;;;;2.00;1.80;;;;;;;;;;7301068;19;140626;-79
2023/09/12 03:13:25;;;;;;;2.08;1.85;;;;;;;;;;7299663;19;142270;-79
2023/09/12 03:15:52;;;;;;;1.85;1.70;;;;;;;;;;7296566;19;142716;-78
2023/09/12 03:18:19;;;;;;;2.38;1.85;;;;;;;;;;7301069;19;140468;-79
2023/09/12 03:20:46;;;;;;;2.28;1.85;;;;;;;;;;7300934;19;140617;-79
2023/09/12 03:23:13;;;;;;;1.98;1.73;;;;;;;;;;7298510;19;140942;-79
2023/09/12 03:25:40;;;;;;;3.83;2.05;;;;;;;;;;7295022;19;142488;-76
2023/09/12 03:28:08;;;;;;;1.92;1.73;;;;;;;;;;7292922;19;140799;-77
2023/09/12 03:30:35;;;;;;;4.25;2.28;;;;;;;;;;7295942;19;140851;-76
2023/09/12 03:33:03;;;;;;;2.70;1.83;;;;;;;;;;7296615;19;141979;-78
2023/09/12 03:35:34;;;;;;;2.33;1.83;;;;;;;;;;7298881;19;141969;-78
2023/09/12 03:38:01;;;;;;;;;;;;;;;;;;7300108;19;140588;-78
2023/09/12 03:40:29;;;;;;;2.50;1.75;;;;;;;;;;7299858;19;140596;-78
2023/09/12 03:42:56;;;;;;;1.77;1.67;;;;;;;;;;7298447;19;141118;-79
2023/09/12 03:45:23;;;;;;;1.63;1.52;;;;;;;;;;7295535;19;142263;-78
2023/09/12 03:47:51;;;;;;;1.92;1.70;;;;;;;;;;7298674;19;140723;-78
2023/09/12 03:50:18;;;;;;;2.25;1.70;;;;;;;;;;7298349;19;140680;-77
2023/09/12 03:52:45;;;;;;;3.15;1.95;;;;;;;;;;7296890;19;141936;-77
2023/09/12 03:55:12;;;;;;;2.13;1.50;;;;;;;;;;7300086;19;140841;-77
2023/09/12 03:57:39;;;;;;;;;;;;;;;;;;7298325;19;140794;-76
2023/09/12 04:00:08;;;;;;;1.58;1.40;;;;;;;;;;7296966;19;144626;-75
2023/09/12 04:02:35;;;;;;;2.20;1.50;;;;;;;;;;7304970;19;141654;-77
2023/09/12 04:05:02;;;;;;;1.58;1.48;;;;;;;;;;7305952;19;141879;-76
2023/09/12 04:07:29;;;;;;;1.45;1.35;;;;;;;;;;7306176;19;140991;-76
2023/09/12 04:09:56;;;;;;;1.88;1.42;;;;;;;;;;7305965;19;141297;-81
2023/09/12 04:12:23;;;;;;;3.95;1.70;;;;;;;;;;7306124;19;140888;-77
2023/09/12 04:14:51;;;;;;;1.85;1.65;;;;;;;;;;7305367;19;142218;-73
2023/09/12 04:17:18;;;;;;;2.33;1.48;;;;;;;;;;7306102;19;140416;-73
2023/09/12 04:19:45;;;;;;;1.83;1.60;;;;;;;;;;7305916;19;140833;-72
2023/09/12 04:22:13;;;;;;;1.70;1.60;;;;;;;;;;7305738;19;141236;-75
2023/09/12 04:24:40;;;;;;;2.60;1.50;;;;;;;;;;7304120;19;141027;-74
2023/09/12 04:27:07;;;;;;;2.30;1.52;;;;;;;;;;7305821;19;140524;-74
2023/09/12 04:29:35;;;;;;;1.52;1.30;;;;;;;;;;7304330;19;141711;-80
2023/09/12 04:32:03;;;;;;;3.10;1.70;;;;;;;;;;7305506;19;140914;-80
2023/09/12 04:34:30;;;;;;;2.55;1.50;;;;;;;;;;7304585;19;141825;-74
2023/09/12 04:36:58;;;;;;;2.90;1.77;;;;;;;;;;7305293;19;140571;-74
2023/09/12 04:39:25;;;;;;;1.55;1.45;;;;;;;;;;7304332;19;140818;-73
2023/09/12 04:41:52;;;;;;;2.08;1.58;;;;;;;;;;7304725;19;140719;-73
2023/09/12 04:44:19;;;;;;;1.90;1.48;;;;;;;;;;7303703;19;141795;-73
2023/09/12 04:46:46;;;;;;;2.83;1.58;;;;;;;;;;7303026;19;140467;-73
2023/09/12 04:49:13;;;;;;;2.15;1.58;;;;;;;;;;7305251;19;140755;-73
2023/09/12 04:51:40;;;;;;;1.85;1.33;;;;;;;;;;7303608;19;141119;-71
2023/09/12 04:54:07;;;;;;;2.40;1.50;;;;;;;;;;7302765;19;142021;-76
2023/09/12 04:56:34;;;;;;;3.13;1.40;;;;;;;;;;7305124;19;140586;-75
2023/09/12 04:59:01;;;;;;;1.77;1.40;;;;;;;;;;7304122;19;140926;-75
2023/09/12 05:01:28;;;;;;;1.98;1.40;;;;;;;;;;7304496;19;141938;-74
2023/09/12 05:03:55;;;;;;;1.52;1.30;;;;;;;;;;7302877;19;141533;-75
2023/09/12 05:06:22;;;;;;;1.42;1.33;;;;;;;;;;7304486;19;140659;-75
2023/09/12 05:08:49;;;;;;;2.00;1.48;;;;;;;;;;7304466;19;140696;-75
2023/09/12 05:11:17;;;;;;;2.72;1.30;;;;;;;;;;7303956;19;141023;-74
2023/09/12 05:13:44;;;;;;;1.70;1.30;;;;;;;;;;7302204;19;142809;-74
2023/09/12 05:16:11;;;;;;;2.25;1.30;;;;;;;;;;7304254;19;140523;-75
2023/09/12 05:18:38;;;;;;;2.38;1.40;;;;;;;;;;7304129;19;140482;-77
2023/09/12 05:21:05;;;;;;;1.60;1.30;;;;;;;;;;7302609;19;141104;-75
2023/09/12 05:23:32;;;;;;;2.85;1.35;;;;;;;;;;7303704;19;142076;-76
2023/09/12 05:25:59;;;;;;;1.60;1.20;;;;;;;;;;7304013;19;140857;-76
2023/09/12 05:28:26;;;;;;;1.40;1.30;;;;;;;;;;7303387;19;140534;-75
2023/09/12 05:30:53;;;;;;;1.83;1.10;;;;;;;;;;7303615;19;140803;-75
2023/09/12 05:33:20;;;;;;;1.60;1.23;;;;;;;;;;7303327;19;142613;-74
2023/09/12 05:35:48;;;;;;;1.42;1.33;;;;;;;;;;7303589;19;141396;-74
2023/09/12 05:38:15;;;;;;;1.20;1.10;;;;;;;;;;7303494;19;140584;-75
2023/09/12 05:40:42;;;;;;;1.63;1.20;;;;;;;;;;7302011;19;141170;-75
2023/09/12 05:43:09;;;;;;;3.15;1.60;;;;;;;;;;7302237;19;143171;-75
2023/09/12 05:45:35;;;;;;;1.30;1.05;;;;;;;;;;7301965;19;140610;-75
2023/09/12 05:48:03;;;;;;;1.27;1.17;;;;;;;;;;7303348;19;140600;-73
2023/09/12 05:50:30;;;;;;;1.45;1.30;;;;;;;;;;7303267;19;140912;-75
2023/09/12 05:52:57;;;;;;;1.50;1.23;;;;;;;;;;7302391;19;143197;-76
2023/09/12 05:55:24;;;;;;;1.50;1.10;;;;;;;;;;7303258;19;140694;-75
2023/09/12 05:57:52;;;;;;;1.40;1.10;;;;;;;;;;7303177;19;140925;-74
2023/09/12 06:00:20;;;;;;;1.15;1.05;;;;;;;;;;7302068;19;142195;-75
2023/09/12 06:02:47;;;;;;;1.50;1.20;;;;;;;;;;7302591;19;142547;-74
2023/09/12 06:05:16;;;;;;;1.25;1.15;;;;;;;;;;7302795;19;140962;-76
2023/09/12 06:07:43;;;;;;;2.08;1.40;;;;;;;;;;7303281;19;140782;-74
2023/09/12 06:10:10;;;;;;;2.42;1.40;;;;;;;;;;7302300;19;141665;-75
2023/09/12 06:12:37;;;;;;;2.33;1.27;;;;;;;;;;7301705;19;142555;-74
2023/09/12 06:15:05;;;;;;;1.67;1.10;;;;;;;;;;7300346;19;140571;-75
2023/09/12 06:17:32;;;;;;;1.73;1.20;;;;;;;;;;7302384;19;140777;-75
2023/09/12 06:19:59;;;;;;;1.45;1.10;;;;;;;;;;7301495;19;141222;-75
2023/09/12 06:22:26;;;;;;;1.17;1.05;;;;;;;;;;7301777;19;142447;-75
2023/09/12 06:24:56;;;;;;;1.03;0.93;;;;;;;;;;7299522;19;140379;-74
2023/09/12 06:27:23;;;;;;;1.40;1.30;;;;;;;;;;7300673;19;140507;-74
2023/09/12 06:29:50;;;;;;;1.52;1.10;;;;;;;;;;7301337;19;142190;-76
2023/09/12 06:32:18;;;;;;;1.63;1.00;;;;;;;;;;7300221;19;142268;-74
2023/09/12 06:34:45;;;;;;;1.45;1.23;;;;;;;;;;7301355;19;140848;-75
2023/09/12 06:37:12;;;;;;;2.10;1.10;;;;;;;;;;7302165;19;140559;-74
2023/09/12 06:39:39;;;;;;;1.73;1.20;;;;;;;;;;7300636;19;141370;-74
2023/09/12 06:42:06;;;;;;;1.20;1.10;;;;;;;;;;7301308;19;141999;-74
2023/09/12 06:44:33;;;;;;;1.30;1.20;;;;;;;;;;7300918;19;140759;-74
2023/09/12 06:47:00;;;;;;;1.10;1.00;;;;;;;;;;7301202;19;140508;-74
2023/09/12 06:49:27;;;;;;;1.92;1.23;;;;;;;;;;7301029;19;142000;-74
2023/09/12 06:51:54;;;;;;;1.27;1.05;;;;;;;;;;7300599;19;141110;-74
2023/09/12 06:54:21;;;;;;;1.23;1.13;;;;;;;;;;7298280;19;140966;-75
2023/09/12 06:56:49;;;;;;;1.10;1.00;;;;;;;;;;7301145;19;140577;-72
2023/09/12 06:59:16;;;;;;;1.25;1.08;;;;;;;;;;7299902;19;140545;-72
2023/09/12 07:01:44;;;;;;;1.35;0.90;;;;;;;;;;7300491;19;142322;-72
2023/09/12 07:04:11;;;;;;;1.08;0.98;;;;;;;;;;7300748;19;140502;-72
2023/09/12 07:06:38;;;;;;;1.10;1.00;;;;;;;;;;7300959;19;140531;-72
2023/09/12 07:09:08;;;;;;;1.92;1.20;;;;;;;;;;7300503;19;140940;-73
2023/09/12 07:11:35;;;;;;;1.48;1.15;;;;;;;;;;7298358;19;141830;-73
2023/09/12 07:14:03;;;;;;;1.80;1.20;;;;;;;;;;7300150;19;140496;-73
2023/09/12 07:16:31;;;;;;;1.52;1.10;;;;;;;;;;7298679;19;140715;-74
2023/09/12 07:18:58;;;;;;;1.00;0.90;;;;;;;;;;7297795;19;141090;-75
2023/09/12 07:21:26;;;;;;;1.65;1.02;;;;;;;;;;7300243;19;142150;-75
2023/09/12 07:23:53;;;;;;;1.05;0.90;;;;;;;;;;7300155;19;140878;-76
2023/09/12 07:26:19;;;;;;;2.83;1.40;;;;;;;;;;7299133;19;140945;-77
2023/09/12 07:28:47;;;;;;;2.08;1.30;;;;;;;;;;7296876;19;140933;-75
2023/09/12 07:31:14;;;;;;;0.95;0.80;;;;;;;;;;7297868;19;142101;-74
2023/09/12 07:33:41;;;;;;;1.05;0.95;;;;;;;;;;7299900;19;140451;-74
2023/09/12 07:36:09;;;;;;;2.03;1.10;;;;;;;;;;7300694;19;140562;-75
2023/09/12 07:38:38;;;;;;;2.13;1.10;;;;;;;;;;7306805;19;141295;-75
2023/09/12 07:41:05;;;;;;;2.08;1.20;;;;;;;;;;7306928;19;142777;-74
2023/09/12 07:43:32;;;;;;;1.15;1.00;;;;;;;;;;7306380;19;141022;-74
2023/09/12 07:45:59;;;;;;;0.70;0.70;;;;;;;;;;7306255;19;140710;-74
2023/09/12 07:48:27;;;;;;;1.20;0.95;;;;;;;;;;7307444;19;141108;-74
2023/09/12 07:50:54;;;;;;;1.10;1.00;;;;;;;;;;7306506;19;141823;-75
2023/09/12 07:53:22;;;;;;;1.42;0.95;;;;;;;;;;7307001;19;140528;-75
2023/09/12 07:55:50;;;;;;;3.25;1.08;;;;;;;;;;7306507;19;140946;-74
2023/09/12 07:58:21;;;;;;;2.35;1.20;;;;;;;;;;7306210;19;141463;-74
2023/09/12 08:00:48;;;;;;;1.33;0.90;;;;;;;;;;7304225;19;142217;-74
2023/09/12 08:03:17;;;;;;;2.00;0.95;;;;;;;;;;7306326;19;140699;-75
2023/09/12 08:05:53;;;;;;;1.38;0.95;;;;;;;;;;7305866;19;140431;-75
2023/09/12 08:08:20;;;;;;;0.90;0.90;;;;;;;;;;7306409;19;141502;-75
2023/09/12 08:10:48;;;;;;;1.30;0.95;;;;;;;;;;7306081;19;143082;-76
2023/09/12 08:13:15;;;;;;;1.85;0.90;;;;;;;;;;7306755;19;140437;-76
2023/09/12 08:15:42;;;;;;;0.63;0.63;;;;;;;;;;7306066;19;140659;-75
2023/09/12 08:18:09;;;;;;;2.45;1.20;;;;;;;;;;7305585;19;141927;-76
2023/09/12 08:20:37;;;;;;;1.58;1.00;;;;;;;;;;7304362;19;141112;-78
2023/09/12 08:23:05;;;;;;;1.33;0.98;;;;;;;;;;7306088;19;140508;-78
2023/09/12 08:25:32;;;;;;;1.67;1.10;;;;;;;;;;7305552;19;140667;-78
2023/09/12 08:27:59;;;;;;;1.35;0.90;;;;;;;;;;7304285;19;141793;-78
2023/09/12 08:30:29;;;;;;;3.28;1.20;;;;;;;;;;7304164;19;142336;-78
2023/09/12 08:32:56;;;;;;;2.08;1.10;;;;;;;;;;7303856;19;140623;-77
2023/09/12 08:35:24;;;;;;;4.60;1.58;;;;;;;;;;7305584;19;141717;-78
2023/09/12 08:37:51;;;;;;;1.13;0.90;;;;;;;;;;7303098;19;142258;-74
2023/09/12 08:40:18;;;;;;;1.40;0.88;;;;;;;;;;7304769;19;141141;-75
2023/09/12 08:42:46;;;;;;;1.20;0.85;;;;;;;;;;7304918;19;140520;-76
2023/09/12 08:45:15;;;;;;;3.25;1.23;;;;;;;;;;7303951;19;140429;-75
2023/09/12 08:47:53;;;;;;;1.58;0.98;;;;;;;;;;7302997;19;140924;-74
2023/09/12 08:50:23;;;;;;;1.13;0.90;;;;;;;;;;7303271;19;142086;-74
2023/09/12 08:52:50;;;;;;;0.77;0.75;;;;;;;;;;7304502;19;140593;-74
2023/09/12 08:55:35;;;;;;;1.10;0.88;;;;;;;;;;7305194;19;141501;-74
2023/09/12 08:58:03;;;;;;;1.65;0.98;;;;;;;;;;7304015;19;140584;-74
2023/09/12 09:00:31;;;;;;;1.15;0.80;;;;;;;;;;7303690;19;142563;-74
2023/09/12 09:02:58;;;;;;;1.23;0.98;;;;;;;;;;7305608;19;140880;-74
2023/09/12 09:05:27;;;;;;;1.05;0.80;;;;;;;;;;7304084;19;140618;-74
2023/09/12 09:07:57;;;;;;;1.15;1.05;;;;;;;;;;7303664;19;140982;-74
2023/09/12 09:10:24;;;;;;;;;;;;;;;;;;7304511;19;142156;-74
2023/09/12 09:13:03;;;;;;;1.15;0.80;;;;;;;;;;7304333;19;142834;-74
2023/09/12 09:15:30;;;;;;;1.42;1.00;;;;;;;;;;7303887;19;140669;-74
2023/09/12 09:18:00;;;;;;;3.10;1.23;;;;;;;;;;7303624;19;141735;-74
2023/09/12 09:20:29;;;;;;;1.75;0.90;;;;;;;;;;7301853;19;142208;-74
2023/09/12 09:23:00;;;;;;;0.98;0.80;;;;;;;;;;7304288;19;141009;-75
2023/09/12 09:25:27;;;;;;;1.83;1.10;;;;;;;;;;7303929;19;140589;-74
2023/09/12 09:27:55;;;;;;;0.95;0.80;;;;;;;;;;7302714;19;141100;-74
2023/09/12 09:30:38;;;;;;;1.85;0.90;;;;;;;;;;7301753;19;142478;-78
2023/09/12 09:33:06;;;;;;;1.98;1.00;;;;;;;;;;7302017;19;140534;-76
2023/09/12 09:35:33;;;;;;;1.25;0.75;;;;;;;;;;7303969;19;140602;-77
2023/09/12 09:38:00;;;;;;;0.80;0.80;;;;;;;;;;7304066;19;141245;-77
2023/09/12 09:40:27;;;;;;;1.73;0.90;;;;;;;;;;7300273;19;141892;-77
2023/09/12 09:42:56;;;;;;;1.48;0.82;;;;;;;;;;7300865;19;140594;-78
2023/09/12 09:45:23;;;;;;;1.65;0.80;;;;;;;;;;7302352;19;140366;-77
2023/09/12 09:47:53;;;;;;;1.08;0.70;;;;;;;;;;7302672;19;141185;-78
2023/09/12 09:50:20;;;;;;;1.67;0.73;;;;;;;;;;7302471;19;142237;-75
2023/09/12 09:52:52;;;;;;;0.88;0.65;;;;;;;;;;7302413;19;140745;-78
2023/09/12 09:55:19;;;;;;;1.13;0.80;;;;;;;;;;7303744;19;140892;-76
2023/09/12 09:57:48;;;;;;;1.10;0.80;;;;;;;;;;7301967;19;142154;-74
2023/09/12 10:00:15;;;;;;;1.02;0.77;;;;;;;;;;7301333;19;140784;-74
2023/09/12 10:02:43;;;;;;;3.55;1.20;;;;;;;;;;7302649;19;141007;-74
2023/09/12 10:05:11;;;;;;;1.35;0.80;;;;;;;;;;7301808;19;140588;-75
2023/09/12 10:07:40;;;;;;;1.05;0.88;;;;;;;;;;7301985;19;140834;-75
2023/09/12 10:10:07;;;;;;;1.08;0.82;;;;;;;;;;7301428;19;141952;-74
2023/09/12 10:12:39;;;;;;;1.23;0.88;;;;;;;;;;7300602;19;142797;-75
2023/09/12 10:15:07;;;;;;;2.17;1.00;;;;;;;;;;7300282;19;142256;-78
2023/09/12 10:17:39;;;;;;;1.25;0.80;;;;;;;;;;7300373;19;140789;-75
2023/09/12 10:20:11;;;;;;;2.47;0.95;;;;;;;;;;7299830;19;141388;-75
2023/09/12 10:22:50;;;;;;;4.60;1.45;;;;;;;;;;7299098;19;141425;-74
2023/09/12 10:25:17;;;;;;;1.90;0.90;;;;;;;;;;7302133;19;140556;-75
2023/09/12 10:27:46;;;;;;;0.77;0.60;;;;;;;;;;7298544;19;141008;-75
2023/09/12 10:30:13;;;;;;;2.55;1.13;;;;;;;;;;7301652;19;140678;-76
2023/09/12 10:32:41;;;;;;;1.17;0.90;;;;;;;;;;7301154;19;140650;-76
2023/09/12 10:35:09;;;;;;;1.73;0.80;;;;;;;;;;7302012;19;140703;-73
2023/09/12 10:37:37;;;;;;;2.58;1.13;;;;;;;;;;7299247;19;141272;-73
2023/09/12 10:40:06;;;;;;;2.28;1.08;;;;;;;;;;7301309;19;143022;-73
2023/09/12 10:42:34;;;;;;;2.75;1.00;;;;;;;;;;7301257;19;140514;-74
2023/09/12 10:45:03;;;;;;;3.72;1.30;;;;;;;;;;7298763;19;140697;-74
2023/09/12 10:47:30;;;;;;;2.22;1.05;;;;;;;;;;7299348;19;142527;-73
2023/09/12 10:49:58;;;;;;;1.85;0.82;;;;;;;;;;7298738;19;141166;-74
2023/09/12 10:52:26;;;;;;;1.50;0.82;;;;;;;;;;7300955;19;140706;-74
2023/09/12 10:54:53;;;;;;;1.65;0.90;;;;;;;;;;7300848;19;140548;-75
2023/09/12 10:57:21;;;;;;;2.20;1.05;;;;;;;;;;7297468;19;140852;-73
2023/09/12 11:00:04;;;;;;;1.17;0.90;;;;;;;;;;7299041;19;142866;-73
2023/09/12 11:02:35;;;;;;;2.67;1.02;;;;;;;;;;7296052;19;144203;-73
2023/09/12 11:05:04;;;;;;;1.17;0.80;;;;;;;;;;7297754;19;141558;-76
2023/09/12 11:07:32;;;;;;;3.17;1.15;;;;;;;;;;7297599;19;141111;-75
2023/09/12 11:10:15;;;;;;;6.22;1.67;;;;;;;;;;7299265;19;141490;-75
2023/09/12 11:12:43;;;;;;;1.45;0.77;;;;;;;;;;7297922;19;140594;-74
2023/09/12 11:15:10;;;;;;;3.45;1.23;;;;;;;;;;7299784;19;140659;-75
2023/09/12 11:17:38;;;;;;;3.53;1.33;;;;;;;;;;7299377;19;141067;-76
2023/09/12 11:20:13;;;;;;;2.65;1.08;;;;;;;;;;7299012;19;140791;-76
2023/09/12 11:22:47;;;;;;;0.75;0.75;;;;;;;;;;7299929;19;140359;-76
2023/09/12 11:25:19;;;;;;;1.40;0.80;;;;;;;;;;7300069;19;140448;-75
2023/09/12 11:27:55;;;;;;;5.72;1.67;;;;;;;;;;7297270;19;140665;-76
2023/09/12 11:30:23;;;;;;;4.95;1.35;;;;;;;;;;7298659;19;143925;-76
2023/09/12 11:32:51;;;;;;;3.47;1.08;;;;;;;;;;7299891;19;140535;-77
2023/09/12 11:35:22;;;;;;;1.92;1.10;;;;;;;;;;7298715;19;140654;-76
2023/09/12 11:37:50;;;;;;;2.15;1.05;;;;;;;;;;7299605;19;141165;-76
2023/09/12 11:40:18;;;;;;;2.50;1.13;;;;;;;;;;7299539;19;141362;-76
2023/09/12 11:42:49;;;;;;;1.67;1.20;;;;;;;;;;7299364;19;140486;-77
2023/09/12 11:45:18;;;;;;;4.22;1.38;;;;;;;;;;7298042;19;141049;-76
2023/09/12 11:47:46;;;;;;;1.85;0.82;;;;;;;;;;7299344;19;140932;-77
2023/09/12 11:50:45;;;;;;;2.60;1.10;;;;;;;;;;7299223;19;141870;-78
2023/09/12 11:53:12;;;;;;;2.05;1.02;;;;;;;;;;7296671;19;140940;-75
2023/09/12 11:55:47;;;;;;;2.20;1.10;;;;;;;;;;7298591;19;140852;-75
2023/09/12 11:58:15;;;;;;;1.98;1.00;;;;;;;;;;7299045;19;141237;-76
2023/09/12 12:00:52;;;;;;;1.30;0.90;;;;;;;;;;7296854;19;142450;-77
2023/09/12 12:03:23;;;;;;;2.43;1.30;;;;;;;;;;7298433;19;140548;-72
2023/09/12 12:05:50;;;;;;;2.28;1.08;;;;;;;;;;7299649;19;140520;-71
2023/09/12 12:08:18;;;;;;;3.28;1.63;;;;;;;;;;7298373;19;141088;-72
2023/09/12 12:10:48;;;;;;;;;;;;;;;;;;7297994;19;142364;-72
2023/09/12 12:13:18;;;;;;;3.75;1.77;;;;;;;;;;7298432;19;140512;-72
2023/09/12 12:15:46;;;;;;;;;;;;;;;;;;7298555;19;140462;-72
2023/09/12 12:18:13;;;;;;;3.60;1.55;;;;;;;;;;7298763;19;142157;-72
2023/09/12 12:20:41;;;;;;;4.93;1.73;;;;;;;;;;7296343;19;142354;-71
2023/09/12 12:23:08;;;;;;;3.00;1.35;;;;;;;;;;7298965;19;140669;-73
2023/09/12 12:25:36;;;;;;;2.35;1.30;;;;;;;;;;7305760;19;140463;-72
2023/09/12 12:28:03;;;;;;;4.78;1.85;;;;;;;;;;7302119;19;141674;-72
2023/09/12 12:30:32;;;;;;;5.10;2.00;;;;;;;;;;7302413;19;140922;-71
2023/09/12 12:33:01;;;;;;;1.90;1.57;;;;;;;;;;7305838;19;140649;-70
2023/09/12 12:35:49;;;;;;;3.40;1.45;;;;;;;;;;7303596;19;140445;-72
2023/09/12 12:38:23;;;;;;;8.25;3.70;;;;;;;;;;7304203;19;140775;-72
2023/09/12 12:40:50;;;;;;;8.65;3.25;;;;;;;;;;7304130;19;140958;-72
2023/09/12 12:43:19;;;;;;;6.70;2.88;;;;;;;;;;7304877;19;140580;-72
2023/09/12 12:45:53;;;;;;;6.82;2.80;;;;;;;;;;7302854;19;140503;-73
2023/09/12 12:48:33;;;;;;;6.38;2.58;;;;;;;;;;7304220;19;140434;-72
2023/09/12 12:51:12;;;;;;;6.30;2.40;;;;;;;;;;7304278;19;142681;-72
2023/09/12 12:53:40;;;;;;;4.13;2.13;;;;;;;;;;7303801;19;140526;-72
2023/09/12 12:56:20;;;;;;;4.07;2.20;;;;;;;;;;7303904;19;140324;-73
2023/09/12 12:58:51;;;;;;;4.07;1.73;;;;;;;;;;7304260;19;140953;-74
2023/09/12 13:01:18;;;;;;;4.43;2.00;;;;;;;;;;7303570;19;142413;-74
2023/09/12 13:03:45;;;;;;;6.38;2.38;;;;;;;;;;7303761;19;142443;-74
2023/09/12 13:06:14;;;;;;;4.82;2.22;;;;;;;;;;7304603;19;140665;-73
2023/09/12 13:08:42;;;;;;;7.22;2.60;;;;;;;;;;7304065;19;140520;-73
2023/09/12 13:11:10;;;;;;;6.25;2.20;;;;;;;;;;7303468;19;142091;-73
2023/09/12 13:13:37;;;;;;;3.50;1.73;;;;;;;;;;7303531;19;140488;-73
2023/09/12 13:16:05;;;;;;;5.82;2.00;;;;;;;;;;7302101;19;140705;-71
2023/09/12 13:18:33;;;;;;;5.97;2.20;;;;;;;;;;7302478;19;140776;-72
2023/09/12 13:21:00;;;;;;;7.78;2.20;;;;;;;;;;7303278;19;142316;-73
2023/09/12 13:23:27;;;;;;;6.38;1.98;;;;;;;;;;7304051;19;140684;-73
2023/09/12 13:25:56;;;;;;;4.47;1.48;;;;;;;;;;7302388;19;140942;-73
2023/09/12 13:28:25;;;;;;;3.53;1.83;;;;;;;;;;7301673;19;143211;-74
2023/09/12 13:30:52;;;;;;;8.00;2.67;;;;;;;;;;7301882;19;141223;-72
2023/09/12 13:33:20;;;;;;;4.10;1.67;;;;;;;;;;7301891;19;140696;-73
2023/09/12 13:35:50;;;;;;;5.35;1.90;;;;;;;;;;7301179;19;140473;-73
2023/09/12 13:38:18;;;;;;;;;;;;;;;;;;7303160;19;142142;-73
2023/09/12 13:40:46;;;;;;;3.15;1.60;;;;;;;;;;7302242;19;149169;-74
2023/09/12 13:43:14;;;;;;;5.13;1.92;;;;;;;;;;7303251;19;140471;-73
2023/09/12 13:45:41;;;;;;;3.80;1.40;;;;;;;;;;7302982;19;140644;-73
2023/09/12 13:48:08;;;;;;;4.63;1.92;;;;;;;;;;7301407;19;141705;-73
2023/09/12 13:50:35;;;;;;;3.05;1.42;;;;;;;;;;7303045;19;142632;-72
2023/09/12 13:53:09;;;;;;;4.28;1.70;;;;;;;;;;7302825;19;140763;-72
2023/09/12 13:55:36;;;;;;;2.38;1.50;;;;;;;;;;7301987;19;140676;-73
2023/09/12 13:58:21;;;;;;;3.95;1.73;;;;;;;;;;7302368;19;140436;-74
2023/09/12 14:00:49;;;;;;;3.65;1.63;;;;;;;;;;7302574;19;143286;-73
2023/09/12 14:03:16;;;;;;;2.65;1.52;;;;;;;;;;7302137;19;140498;-73
2023/09/12 14:05:43;;;;;;;3.30;1.35;;;;;;;;;;7301646;19;140438;-74
2023/09/12 14:08:11;;;;;;;6.53;2.13;;;;;;;;;;7300513;19;140495;-73
2023/09/12 14:10:38;;;;;;;3.45;1.35;;;;;;;;;;7302317;19;141703;-71
2023/09/12 14:13:08;;;;;;;2.45;1.27;;;;;;;;;;7302215;19;140671;-73
2023/09/12 14:15:38;;;;;;;2.47;1.10;;;;;;;;;;7301840;19;140776;-73
2023/09/12 14:18:05;;;;;;;3.72;1.85;;;;;;;;;;7300025;19;141061;-72
2023/09/12 14:20:33;;;;;;;2.58;1.27;;;;;;;;;;7302473;19;142685;-72
2023/09/12 14:23:03;;;;;;;2.97;1.48;;;;;;;;;;7302362;19;140409;-73
2023/09/12 14:25:31;;;;;;;3.93;1.63;;;;;;;;;;7302134;19;140569;-73
2023/09/12 14:27:59;;;;;;;4.82;1.50;;;;;;;;;;7300982;19;141323;-73
2023/09/12 14:30:33;;;;;;;4.28;1.42;;;;;;;;;;7299930;19;141912;-73
2023/09/12 14:33:03;;;;;;;3.03;1.40;;;;;;;;;;7301121;19;140492;-72
2023/09/12 14:35:30;;;;;;;4.07;1.33;;;;;;;;;;7302579;19;140720;-77
2023/09/12 14:37:58;;;;;;;13.43;5.82;;;;;;;;;;7299553;19;141340;-73